Time;durP1;ratioP1;P1;durP2;ratioP2;P2;SDS_P1;SDS_P2;PMS_P1;PMS_P2;Temp;Humidity;BMP_temperature;BMP_pressure;BME280_temperature;BME280_humidity;BME280_pressure;Samples;Min_cycle;Max_cycle;Signal;HPM_P1;HPM_P2
2021/09/17 00:01:26;;;;;;;;;12.33;12.33;;;;;19.60;57.53;101504.16;4950433;28;45533;-91
2021/09/17 00:03:52;;;;;;;;;17.67;13.67;;;;;19.63;57.32;101504.16;4963584;28;46978;-92
2021/09/17 00:06:17;;;;;;;;;18.00;17.00;;;;;19.72;57.62;101521.84;4969818;28;45138;-91
2021/09/17 00:08:43;;;;;;;;;15.67;14.33;;;;;19.55;57.40;101490.88;4971277;28;44703;-91
2021/09/17 00:11:09;;;;;;;;;16.00;15.00;;;;;19.73;57.13;101518.28;4973666;28;44804;-91
2021/09/17 00:13:36;;;;;;;;;18.33;16.00;;;;;19.62;57.29;101500.59;4989634;28;46202;-89
2021/09/17 00:16:02;;;;;;;;;15.33;11.33;;;;;19.72;57.47;101512.06;4972355;28;44770;-91
2021/09/17 00:18:27;;;;;;;;;15.33;14.00;;;;;19.72;57.96;101503.19;4971578;28;44727;-93
2021/09/17 00:20:54;;;;;;;;;13.33;12.33;;;;;19.61;57.24;101487.25;4971446;28;45446;-90
2021/09/17 00:23:20;;;;;;;;;18.00;14.33;;;;;19.65;57.59;101500.56;4971200;28;47139;-91
2021/09/17 00:25:45;;;;;;;;;13.00;12.67;;;;;19.65;57.21;101497.91;4988214;28;44852;-91
2021/09/17 00:28:11;;;;;;;;;13.00;13.00;;;;;19.59;57.20;101478.38;4972448;28;44843;-91
2021/09/17 00:30:36;;;;;;;;;16.33;13.00;;;;;19.69;57.61;101505.88;4987768;28;45154;-90
2021/09/17 00:33:03;;;;;;;;;14.67;14.67;;;;;19.55;57.51;101482.88;4980487;28;45556;-91
2021/09/17 00:35:29;;;;;;;;;13.00;13.00;;;;;19.51;57.24;101474.03;4964951;28;45201;-92
2021/09/17 00:38:01;;;;;;;;;14.00;12.33;;;;;19.63;57.33;101497.03;4946124;28;45284;-91
2021/09/17 00:40:26;;;;;;;;;12.67;10.67;;;;;19.50;57.40;101479.38;4948108;28;45393;-91
2021/09/17 00:42:52;;;;;;;;;16.33;12.00;;;;;19.50;57.27;101479.38;4945913;28;48039;-91
2021/09/17 00:45:17;;;;;;;;;15.00;13.33;;;;;19.60;57.46;101498.84;4945464;28;45406;-90
2021/09/17 00:48:04;;;;;;;;;10.00;10.00;;;;;19.59;57.41;101492.63;4945673;28;45255;-91
2021/09/17 00:50:33;;;;;;;;;13.67;13.00;;;;;19.56;57.47;101493.50;4944825;28;45696;-90
2021/09/17 00:52:58;;;;;;;;;10.00;10.00;;;;;19.52;57.59;101483.78;4945660;28;47211;-92
2021/09/17 00:55:24;;;;;;;;;11.67;11.67;;;;;19.38;57.87;101459.91;4945372;28;45868;-91
2021/09/17 00:57:50;;;;;;;;;15.33;11.00;;;;;19.55;57.63;101483.75;4946324;28;45473;-91
2021/09/17 01:00:16;;;;;;;;;14.67;14.67;;;;;19.49;57.99;101473.16;4965258;28;45448;-91
2021/09/17 01:02:43;;;;;;;;;12.67;12.67;;;;;19.55;58.24;101478.44;4946189;28;45428;-91
2021/09/17 01:05:10;;;;;;;;;16.33;14.00;;;;;19.49;57.99;101472.25;4945475;28;45477;-92
2021/09/17 01:07:36;;;;;;;;;14.67;12.33;;;;;19.43;57.88;101457.19;4944590;28;45452;-89
2021/09/17 01:10:04;;;;;;;;;16.00;15.67;;;;;19.44;57.72;101465.19;4944926;28;45668;-91
2021/09/17 01:12:29;;;;;;;;;19.33;13.00;;;;;19.37;57.97;101443.91;4945296;28;47397;-91
2021/09/17 01:14:55;;;;;;;;;17.67;15.00;;;;;19.44;58.23;101464.28;4944274;28;46015;-90
2021/09/17 01:17:29;;;;;;;;;18.00;15.67;;;;;19.38;58.21;101453.66;4944589;28;45376;-91
2021/09/17 01:19:55;;;;;;;;;13.00;11.00;;;;;19.35;58.23;101449.28;4944795;28;45545;-91
2021/09/17 01:22:21;;;;;;;;;17.67;15.00;;;;;19.43;58.34;101467.88;4961781;28;45483;-92
2021/09/17 01:24:47;;;;;;;;;16.67;13.67;;;;;19.29;58.15;101442.19;4927271;28;45892;-90
2021/09/17 01:27:25;;;;;;;;;13.00;13.00;;;;;19.39;58.29;101466.13;4944215;28;45330;-92
2021/09/17 01:29:52;;;;;;;;;13.67;12.33;;;;;19.30;57.97;101448.41;4950462;28;45632;-91
2021/09/17 01:32:18;;;;;;;;;15.33;13.67;;;;;19.17;58.06;101420.97;4952939;28;45401;-90
2021/09/17 01:34:45;;;;;;;;;13.00;11.00;;;;;19.26;58.37;101442.22;4963620;28;45260;-90
2021/09/17 01:37:11;;;;;;;;;14.33;12.00;;;;;19.16;58.08;101419.22;4944738;28;45173;-92
2021/09/17 01:39:37;;;;;;;;;15.33;13.00;;;;;19.21;58.17;101433.38;4944484;28;45251;-92
2021/09/17 01:42:02;;;;;;;;;13.00;10.00;;;;;19.27;58.30;101440.44;4943452;28;46845;-92
2021/09/17 01:44:28;;;;;;;;;15.67;13.67;;;;;19.23;58.67;101438.72;4943327;28;45428;-91
2021/09/17 01:46:53;;;;;;;;;11.33;11.00;;;;;19.24;58.75;101440.47;4943628;28;45305;-90
2021/09/17 01:49:19;;;;;;;;;14.67;13.67;;;;;19.18;58.84;101431.63;4943414;28;45257;-91
2021/09/17 01:51:45;;;;;;;;;15.00;12.33;;;;;19.16;59.02;101427.19;4943212;28;46638;-91
2021/09/17 01:54:10;;;;;;;;;16.33;15.33;;;;;19.05;59.22;101411.25;4944061;28;45649;-92
2021/09/17 01:56:36;;;;;;;;;17.67;17.67;;;;;19.18;59.27;101430.75;4961077;28;45485;-90
2021/09/17 01:59:02;;;;;;;;;16.00;16.00;;;;;19.15;59.51;101425.41;4943487;28;45409;-90
2021/09/17 02:01:28;;;;;;;;;17.00;16.33;;;;;19.14;59.83;101424.50;4943410;28;47076;-90
2021/09/17 02:03:54;;;;;;;;;19.67;18.33;;;;;19.06;59.58;101416.56;4945028;28;46128;-92
2021/09/17 02:06:20;;;;;;;;;21.00;20.00;;;;;19.09;59.76;101413.91;4944381;28;45374;-91
2021/09/17 02:08:46;;;;;;;;;24.33;17.33;;;;;18.97;59.78;101406.84;4949335;28;45495;-91
2021/09/17 02:11:12;;;;;;;;;23.33;20.00;;;;;19.00;59.60;101403.28;4958101;28;47019;-91
2021/09/17 02:13:40;;;;;;;;;23.67;19.67;;;;;18.93;59.74;101398.91;4957456;28;44722;-91
2021/09/17 02:16:05;;;;;;;;;23.33;17.00;;;;;18.96;59.97;101405.09;4946429;28;45412;-91
2021/09/17 02:18:31;;;;;;;;;21.33;19.67;;;;;18.94;60.33;101406.00;4945033;28;45556;-91
2021/09/17 02:20:56;;;;;;;;;21.33;18.33;;;;;18.86;60.39;101388.31;4944400;28;47363;-90
2021/09/17 02:23:22;;;;;;;;;19.00;18.00;;;;;18.90;60.43;101393.59;4943530;28;45952;-91
2021/09/17 02:25:47;;;;;;;;;25.67;21.00;;;;;18.88;60.93;101398.03;4946232;28;45430;-90
2021/09/17 02:28:13;;;;;;;;;25.33;22.33;;;;;18.86;60.80;101398.06;4956159;28;45437;-90
2021/09/17 02:30:42;;;;;;;;;18.33;18.33;;;;;18.80;60.98;101382.13;4951761;28;47135;-90
2021/09/17 02:33:07;;;;;;;;;21.00;19.33;;;;;18.73;60.91;101375.94;4948493;28;45404;-89
2021/09/17 02:35:33;;;;;;;;;20.00;16.00;;;;;18.77;60.98;101395.44;4949641;28;45377;-91
2021/09/17 02:37:58;;;;;;;;;14.00;13.33;;;;;18.81;61.11;101400.75;4951848;28;45291;-90
2021/09/17 02:40:24;;;;;;;;;15.67;15.33;;;;;18.75;60.93;101399.03;4948179;28;47756;-92
2021/09/17 02:42:50;;;;;;;;;18.00;16.00;;;;;18.81;61.40;101411.41;4948174;28;45256;-90
2021/09/17 02:45:16;;;;;;;;;19.67;15.67;;;;;18.65;61.23;101377.78;4962707;28;45463;-92
2021/09/17 02:47:42;;;;;;;;;19.33;19.00;;;;;18.78;61.20;101400.78;4962637;28;45396;-90
2021/09/17 02:50:09;;;;;;;;;19.33;15.00;;;;;18.67;61.60;101378.66;4943894;28;47260;-90
2021/09/17 02:52:34;;;;;;;;;22.33;20.00;;;;;18.77;61.62;101395.44;4944003;28;45495;-90
2021/09/17 02:55:00;;;;;;;;;19.33;16.33;;;;;18.72;61.58;101387.47;4947062;28;45342;-91
2021/09/17 02:57:25;;;;;;;;;21.00;21.00;;;;;18.68;61.66;101377.75;4949681;28;45384;-90
2021/09/17 02:59:51;;;;;;;;;26.67;20.33;;;;;18.71;61.63;101383.06;4949163;28;47049;-90
2021/09/17 03:02:19;;;;;;;;;18.33;16.00;;;;;18.59;61.85;101371.56;4948101;28;46135;-90
2021/09/17 03:04:45;;;;;;;;;23.00;19.67;;;;;18.68;61.75;101383.97;4947293;28;45390;-90
2021/09/17 03:07:10;;;;;;;;;26.67;19.33;;;;;18.51;62.36;101360.09;4947645;28;45264;-90
2021/09/17 03:09:36;;;;;;;;;19.67;19.67;;;;;18.48;62.07;101361.00;4963154;28;47076;-91
2021/09/17 03:12:02;;;;;;;;;21.00;20.67;;;;;18.53;61.84;101366.28;4945053;28;45531;-90
2021/09/17 03:14:28;;;;;;;;;21.00;18.67;;;;;18.51;62.08;101365.41;4946071;28;45466;-89
2021/09/17 03:16:54;;;;;;;;;18.67;16.33;;;;;18.60;62.12;101378.69;4951083;28;45353;-92
2021/09/17 03:19:22;;;;;;;;;22.67;19.00;;;;;18.54;62.49;101364.53;4954053;28;48007;-92
2021/09/17 03:21:48;;;;;;;;;22.00;18.33;;;;;18.40;62.14;101337.06;4955769;28;45352;-90
2021/09/17 03:24:26;;;;;;;;;;;;;;;;;;;;;
2021/09/17 03:26:55;;;;;;;;;18.00;16.33;;;;;18.39;62.36;101350.41;4971918;28;64339;-91
2021/09/17 03:29:24;;;;;;;;;16.00;15.33;;;;;18.35;62.44;101349.53;4955107;28;47239;-91
2021/09/17 03:31:54;;;;;;;;;20.00;18.00;;;;;18.28;62.37;101339.81;4973938;28;45164;-90
2021/09/17 03:34:24;;;;;;;;;22.33;18.67;;;;;18.39;62.75;101369.03;4955139;28;45449;-91
2021/09/17 03:37:08;;;;;;;;;16.67;15.67;;;;;18.33;62.77;101359.31;4965743;28;45490;-90
2021/09/17 03:39:36;;;;;;;;;19.00;17.67;;;;;18.23;62.88;101338.97;4965247;28;46812;-91
2021/09/17 03:42:08;;;;;;;;;20.00;19.00;;;;;18.20;62.81;101328.31;4963718;28;45411;-91
2021/09/17 03:44:39;;;;;;;;;22.67;18.67;;;;;18.17;62.73;101338.09;4963214;28;45382;-91
2021/09/17 03:47:10;;;;;;;;;18.33;16.00;;;;;18.14;62.98;101335.44;4964626;28;45542;-90
2021/09/17 03:49:35;;;;;;;;;22.67;20.00;;;;;18.16;63.24;101354.03;4963344;28;46948;-92
2021/09/17 03:52:01;;;;;;;;;21.67;21.00;;;;;18.26;62.95;101370.88;4971441;28;45236;-91
2021/09/17 03:54:27;;;;;;;;;19.33;17.67;;;;;18.13;63.50;101352.25;4965472;28;45459;-91
2021/09/17 03:56:57;;;;;;;;;20.00;18.33;;;;;18.18;63.10;101349.63;4969152;28;45460;-90
2021/09/17 03:59:23;;;;;;;;;22.00;19.33;;;;;18.10;63.26;101332.78;4951074;28;47113;-92
2021/09/17 04:01:49;;;;;;;;;19.00;16.67;;;;;18.13;63.23;101340.72;4950105;28;45281;-91
2021/09/17 04:04:14;;;;;;;;;20.67;17.67;;;;;18.23;63.30;101365.56;4950906;28;45268;-90
2021/09/17 04:06:42;;;;;;;;;18.67;16.67;;;;;18.07;63.38;101336.31;4969111;28;45246;-91
2021/09/17 04:09:12;;;;;;;;;14.67;14.67;;;;;18.10;62.97;101341.66;4975958;28;47095;-91
2021/09/17 04:11:38;;;;;;;;;16.67;16.00;;;;;18.11;63.37;101346.06;4965244;28;45403;-90
2021/09/17 04:14:04;;;;;;;;;16.33;15.67;;;;;18.11;63.55;101350.50;4970083;28;44749;-90
2021/09/17 04:16:45;;;;;;;;;15.67;14.33;;;;;18.09;63.63;101353.16;4970701;28;45216;-90
2021/09/17 04:19:11;;;;;;;;;17.33;17.00;;;;;17.96;63.61;101327.53;4956560;28;47078;-90
2021/09/17 04:21:36;;;;;;;;;18.67;17.67;;;;;18.06;64.05;101353.19;4958950;28;45184;-89
2021/09/17 04:24:02;;;;;;;;;17.33;16.33;;;;;18.05;63.65;101348.75;4949916;28;45375;-91
2021/09/17 04:26:27;;;;;;;;;23.00;18.67;;;;;17.99;63.49;101346.13;4948047;28;45529;-91
2021/09/17 04:28:53;;;;;;;;;16.67;14.67;;;;;18.05;63.51;101357.63;4946055;28;46963;-90
2021/09/17 04:31:18;;;;;;;;;15.67;15.67;;;;;18.08;63.78;101359.41;4961919;28;45285;-91
2021/09/17 04:33:44;;;;;;;;;13.67;13.67;;;;;18.07;64.05;101362.94;4944959;28;45434;-91
2021/09/17 04:36:10;;;;;;;;;19.00;13.67;;;;;18.01;63.69;101353.22;4945044;28;45502;-90
2021/09/17 04:38:35;;;;;;;;;15.33;14.33;;;;;18.05;63.76;101364.72;4944470;28;48255;-90
2021/09/17 04:41:01;;;;;;;;;15.33;14.33;;;;;17.91;63.88;101339.06;4944558;28;45371;-90
2021/09/17 04:43:29;;;;;;;;;14.33;12.33;;;;;17.90;63.22;101331.97;4962558;28;45364;-91
2021/09/17 04:46:00;;;;;;;;;16.00;15.00;;;;;17.99;63.58;101340.78;4944691;28;45449;-90
2021/09/17 04:48:25;;;;;;;;;16.67;16.67;;;;;17.90;63.62;101331.06;4947211;28;47054;-91
2021/09/17 04:50:51;;;;;;;;;17.00;13.67;;;;;17.95;63.41;101339.94;4950716;28;45502;-91
2021/09/17 04:53:16;;;;;;;;;15.67;14.00;;;;;17.87;63.70;101324.00;4951355;28;45366;-90
2021/09/17 04:55:42;;;;;;;;;18.67;15.00;;;;;17.94;63.43;101340.81;4957133;28;44846;-91
2021/09/17 04:58:09;;;;;;;;;17.67;13.33;;;;;17.93;63.60;101339.94;4970127;28;47070;-91
2021/09/17 05:00:36;;;;;;;;;19.33;16.33;;;;;18.04;63.64;101352.31;4961003;28;45225;-91
2021/09/17 05:03:03;;;;;;;;;14.67;14.67;;;;;17.97;63.59;101348.78;4961997;28;45297;-90
2021/09/17 05:05:28;;;;;;;;;16.33;15.33;;;;;17.87;63.27;101334.66;4944146;28;45446;-91
2021/09/17 05:08:25;;;;;;;;;16.67;15.67;;;;;17.83;63.44;101327.53;4944223;28;47655;-90
2021/09/17 05:10:51;;;;;;;;;13.00;13.00;;;;;17.87;63.29;101337.31;4943845;28;45525;-91
2021/09/17 05:13:16;;;;;;;;;17.00;15.00;;;;;17.94;63.66;101348.78;4944117;28;45450;-92
2021/09/17 05:15:42;;;;;;;;;18.67;15.67;;;;;17.88;63.69;101339.06;4962051;28;45408;-91
2021/09/17 05:18:07;;;;;;;;;14.00;14.00;;;;;17.98;63.91;101358.53;4960119;28;47198;-92
2021/09/17 05:20:33;;;;;;;;;21.00;15.00;;;;;17.86;63.82;101335.53;4944500;28;45864;-91
2021/09/17 05:23:50;;;;;;;;;16.67;15.00;;;;;17.96;63.89;101354.13;4965517;28;45376;-91
2021/09/17 05:26:15;;;;;;;;;15.33;14.33;;;;;17.87;63.65;101341.72;4953512;28;45667;-91
2021/09/17 05:28:43;;;;;;;;;18.33;17.33;;;;;17.96;63.51;101348.81;4964456;28;46474;-91
2021/09/17 05:33:34;;;;;;;;;13.67;13.00;;;;;17.93;63.85;101342.59;4983875;23;67539;-91
2021/09/17 05:35:59;;;;;;;;;12.00;12.00;;;;;17.80;63.74;101320.47;4944059;28;45563;-93
2021/09/17 05:38:25;;;;;;;;;18.00;16.00;;;;;17.87;63.82;101337.31;4943962;28;47654;-90
2021/09/17 05:40:52;;;;;;;;;18.33;16.00;;;;;17.84;63.78;101329.31;4959531;28;45294;-91
2021/09/17 05:43:17;;;;;;;;;20.00;17.67;;;;;17.89;63.71;101346.16;4961610;28;45469;-91
2021/09/17 05:45:43;;;;;;;;;18.00;17.33;;;;;17.79;64.09;101334.66;4943898;28;45529;-92
2021/09/17 05:48:11;;;;;;;;;16.67;16.67;;;;;17.76;63.83;101317.84;4943917;28;46960;-91
2021/09/17 05:50:36;;;;;;;;;22.00;19.33;;;;;17.91;63.84;101344.38;4941623;28;45325;-83
2021/09/17 05:53:02;;;;;;;;;19.00;18.00;;;;;17.91;63.62;101339.06;4958225;28;45413;-81
2021/09/17 05:55:28;;;;;;;;;20.33;18.33;;;;;17.94;64.10;101351.44;4958387;28;45318;-83
2021/09/17 05:57:55;;;;;;;;;22.00;20.33;;;;;17.95;64.26;101350.56;4958480;28;46317;-81
2021/09/17 06:00:20;;;;;;;;;19.00;18.67;;;;;17.96;63.69;101346.16;4958500;28;45430;-82
2021/09/17 06:02:45;;;;;;;;;18.33;17.00;;;;;17.89;63.97;101324.88;4958260;28;45342;-83
2021/09/17 06:05:11;;;;;;;;;24.33;23.33;;;;;17.99;63.47;101340.78;4958868;28;45279;-80
2021/09/17 06:07:44;;;;;;;;;19.00;16.33;;;;;17.97;63.83;101350.56;4958118;28;45346;-81
2021/09/17 06:10:10;;;;;;;;;22.33;19.00;;;;;17.96;63.97;101341.69;4958450;28;45303;-81
2021/09/17 06:12:36;;;;;;;;;22.25;19.25;;;;;17.96;63.93;101339.03;4958348;28;45297;-81
2021/09/17 06:15:02;;;;;;;;;21.67;21.67;;;;;18.04;64.23;101344.34;4958616;28;45346;-81
2021/09/17 06:17:28;;;;;;;;;18.00;17.00;;;;;18.05;64.06;101335.44;4955126;28;46452;-82
2021/09/17 06:19:53;;;;;;;;;20.33;17.67;;;;;18.08;64.33;101346.09;4958543;28;45395;-81
2021/09/17 06:22:19;;;;;;;;;20.67;17.67;;;;;18.10;64.24;101335.44;4958471;28;45421;-82
2021/09/17 06:24:44;;;;;;;;;18.67;18.33;;;;;18.14;63.86;101339.84;4958390;28;45426;-80
2021/09/17 06:27:09;;;;;;;;;22.67;20.67;;;;;18.16;64.21;101338.06;4958111;28;45318;-80
2021/09/17 06:29:35;;;;;;;;;19.00;18.00;;;;;18.17;63.80;101332.75;4958011;28;45479;-80
2021/09/17 06:32:00;;;;;;;;;22.33;19.67;;;;;18.16;63.70;101336.31;4957870;28;45402;-82
2021/09/17 06:34:26;;;;;;;;;22.67;18.33;;;;;18.19;63.82;101331.88;4956987;28;45444;-81
2021/09/17 06:36:53;;;;;;;;;24.33;21.33;;;;;18.20;63.93;101328.31;4958237;28;45923;-81
2021/09/17 06:39:22;;;;;;;;;21.33;19.67;;;;;18.22;63.72;101327.44;4958156;28;45330;-81
2021/09/17 06:41:48;;;;;;;;;19.33;18.00;;;;;18.24;63.59;101330.06;4957900;28;45559;-81
2021/09/17 06:44:14;;;;;;;;;24.33;20.33;;;;;18.25;63.18;101318.56;4957914;28;45324;-81
2021/09/17 06:46:39;;;;;;;;;21.00;16.67;;;;;18.22;63.24;101322.09;4957985;28;45405;-85
2021/09/17 06:49:05;;;;;;;;;19.00;16.00;;;;;18.28;63.31;101327.41;4958280;28;45386;-85
2021/09/17 06:51:30;;;;;;;;;21.33;20.67;;;;;18.28;63.50;101318.53;4957445;28;45435;-85
2021/09/17 06:53:55;;;;;;;;;19.67;18.67;;;;;18.34;63.42;101322.94;4958731;28;45380;-85
2021/09/17 06:56:21;;;;;;;;;19.33;19.33;;;;;18.33;63.43;101319.41;4958376;28;45405;-85
2021/09/17 06:58:46;;;;;;;;;23.00;20.33;;;;;18.37;63.50;101329.13;4940229;28;45617;-84
2021/09/17 07:01:12;;;;;;;;;16.00;15.00;;;;;18.39;62.94;101322.03;4958385;28;45382;-85
2021/09/17 07:03:37;;;;;;;;;17.67;14.67;;;;;18.36;63.26;101316.69;4940931;28;45645;-84
2021/09/17 07:06:03;;;;;;;;;15.67;14.00;;;;;18.44;63.51;101321.09;4957829;28;45649;-83
2021/09/17 07:08:28;;;;;;;;;16.67;15.67;;;;;18.44;62.61;101316.66;4958106;28;45301;-85
2021/09/17 07:10:54;;;;;;;;;16.33;16.33;;;;;18.45;62.83;101317.53;4958468;28;45351;-83
2021/09/17 07:13:19;;;;;;;;;24.00;19.00;;;;;18.45;63.17;101322.84;4958752;28;45310;-84
2021/09/17 07:15:45;;;;;;;;;18.33;15.67;;;;;18.40;62.61;101314.94;4958352;28;45457;-84
2021/09/17 07:18:12;;;;;;;;;20.33;17.00;;;;;18.46;62.84;101324.66;4957799;28;45233;-84
2021/09/17 07:20:38;;;;;;;;;19.33;18.00;;;;;18.47;62.58;101321.97;4959446;28;45416;-84
2021/09/17 07:23:04;;;;;;;;;19.33;17.33;;;;;18.46;62.35;101320.22;4963387;28;45480;-84
2021/09/17 07:25:31;;;;;;;;;21.67;18.67;;;;;18.45;62.93;101317.53;4958215;28;45433;-84
2021/09/17 07:27:57;;;;;;;;;23.33;17.33;;;;;18.47;62.66;101318.41;4967489;28;45370;-85
2021/09/17 07:30:23;;;;;;;;;21.67;17.00;;;;;18.51;63.08;101318.38;4975790;28;44704;-84
2021/09/17 07:32:49;;;;;;;;;25.67;22.67;;;;;18.54;62.55;101313.94;4959989;28;45447;-85
2021/09/17 07:35:15;;;;;;;;;22.67;19.67;;;;;18.46;62.26;101304.25;4969299;28;45988;-85
2021/09/17 07:37:42;;;;;;;;;20.67;20.00;;;;;18.55;62.13;101313.91;4969420;28;45326;-85
2021/09/17 07:40:08;;;;;;;;;20.00;17.00;;;;;18.61;62.45;101321.00;4956916;28;45483;-85
2021/09/17 07:42:33;;;;;;;;;19.00;18.33;;;;;18.58;62.37;101315.69;4975884;28;45211;-85
2021/09/17 07:44:59;;;;;;;;;21.67;20.33;;;;;18.66;61.87;101323.59;4976283;28;45100;-85
2021/09/17 07:47:24;;;;;;;;;17.67;17.00;;;;;18.65;61.89;101324.53;4977655;28;44752;-85
2021/09/17 07:49:50;;;;;;;;;18.33;16.67;;;;;18.68;62.09;101328.03;4961247;28;45031;-84
2021/09/17 07:52:15;;;;;;;;;17.00;16.67;;;;;18.69;62.33;101335.16;4965413;28;45399;-85
2021/09/17 07:54:41;;;;;;;;;15.33;15.33;;;;;18.73;62.42;101339.56;4956041;28;45856;-85
2021/09/17 07:57:06;;;;;;;;;19.33;16.67;;;;;18.68;62.76;101321.81;4958163;28;45281;-86
2021/09/17 07:59:32;;;;;;;;;20.00;15.33;;;;;18.74;62.07;101327.13;4957972;28;45362;-86
2021/09/17 08:01:57;;;;;;;;;19.00;15.67;;;;;18.77;62.44;101332.41;4958113;28;45342;-84
2021/09/17 08:04:23;;;;;;;;;21.33;19.00;;;;;18.82;61.86;101333.28;4957758;28;45549;-86
2021/09/17 08:06:48;;;;;;;;;20.00;17.33;;;;;18.83;62.04;101329.72;4961372;28;45302;-86
2021/09/17 08:09:14;;;;;;;;;15.33;15.00;;;;;18.80;61.80;101319.09;4958483;28;45494;-85
2021/09/17 08:11:40;;;;;;;;;20.67;18.67;;;;;18.85;61.99;101327.91;4961639;28;45399;-85
2021/09/17 08:14:05;;;;;;;;;20.67;17.67;;;;;18.92;61.87;101335.84;4960964;28;46259;-86
2021/09/17 08:16:32;;;;;;;;;16.67;16.67;;;;;18.93;61.43;101327.84;4943477;28;45296;-86
2021/09/17 08:18:58;;;;;;;;;17.67;16.33;;;;;18.89;61.79;101317.25;4962195;28;45460;-86
2021/09/17 08:21:23;;;;;;;;;18.33;14.67;;;;;18.91;61.38;101321.66;4964302;28;45556;-85
2021/09/17 08:23:48;;;;;;;;;17.33;14.67;;;;;18.96;60.99;101326.94;4963218;28;45466;-85
2021/09/17 08:26:14;;;;;;;;;13.33;13.00;;;;;19.01;60.65;101333.13;4945133;28;45375;-84
2021/09/17 08:28:39;;;;;;;;;20.67;17.67;;;;;19.00;61.15;101323.34;4962230;28;45396;-85
2021/09/17 08:31:05;;;;;;;;;16.33;16.00;;;;;19.07;61.22;101326.84;4961093;28;45787;-84
2021/09/17 08:33:31;;;;;;;;;17.00;16.67;;;;;19.09;61.41;101328.63;4943221;28;47687;-85
2021/09/17 08:35:58;;;;;;;;;17.33;16.67;;;;;19.14;61.12;101333.03;4961366;28;45514;-85
2021/09/17 08:38:24;;;;;;;;;18.67;16.67;;;;;19.15;60.68;101324.16;4961715;28;45274;-87
2021/09/17 08:40:58;;;;;;;;;19.33;17.00;;;;;19.18;61.02;101329.47;4960803;28;45429;-86
2021/09/17 08:43:25;;;;;;;;;18.33;15.00;;;;;19.22;61.14;101320.53;4942711;28;48551;-86
2021/09/17 08:45:51;;;;;;;;;18.67;16.00;;;;;19.26;61.54;101326.72;4942840;28;45434;-86
2021/09/17 08:48:17;;;;;;;;;15.00;13.00;;;;;19.27;61.66;101324.03;4960314;28;45412;-86
2021/09/17 08:50:44;;;;;;;;;14.67;13.33;;;;;19.31;61.46;101322.25;4960462;28;45334;-86
2021/09/17 08:53:10;;;;;;;;;14.00;14.00;;;;;19.34;61.45;101319.53;4960181;28;46179;-86
2021/09/17 08:55:36;;;;;;;;;14.33;13.67;;;;;19.44;61.29;101330.97;4960026;28;45413;-85
2021/09/17 08:58:01;;;;;;;;;16.00;12.00;;;;;19.44;61.41;101321.22;4960156;28;45278;-86
2021/09/17 09:00:27;;;;;;;;;15.33;15.33;;;;;19.52;61.35;101323.78;4962798;28;45462;-86
2021/09/17 09:02:57;;;;;;;;;16.00;13.33;;;;;19.52;61.44;101318.44;4961812;28;46062;-86
2021/09/17 09:05:27;;;;;;;;;17.67;13.33;;;;;19.46;60.64;101312.31;4961376;28;45421;-86
2021/09/17 09:07:53;;;;;;;;;14.67;13.67;;;;;19.60;60.66;101325.50;4944197;28;45445;-86
2021/09/17 09:10:19;;;;;;;;;16.00;14.33;;;;;19.61;60.73;101322.81;4960997;28;45368;-86
2021/09/17 09:12:49;;;;;;;;;11.33;11.00;;;;;19.66;60.93;101320.09;4963060;28;45307;-86
2021/09/17 09:15:16;;;;;;;;;15.33;15.33;;;;;19.72;60.60;101322.69;4961614;28;45836;-86
2021/09/17 09:17:44;;;;;;;;;17.67;13.67;;;;;19.76;59.87;101320.88;4962058;28;45498;-84
2021/09/17 09:20:39;;;;;;;;;12.00;10.67;;;;;19.84;59.74;101318.97;4961260;28;45164;-84
2021/09/17 09:23:09;;;;;;;;;11.67;10.33;;;;;19.96;59.83;101325.09;4961088;28;45355;-84
2021/09/17 09:26:08;;;;;;;;;10.00;8.33;;;;;20.22;59.62;101318.56;4960946;28;45335;-84
2021/09/17 09:28:36;;;;;;;;;13.00;10.33;;;;;20.68;59.53;101314.34;4960878;28;45541;-84
2021/09/17 09:31:09;;;;;;;;;8.33;7.33;;;;;21.19;58.21;101310.84;4960318;28;45415;-84
2021/09/17 09:33:40;;;;;;;;;10.67;9.33;;;;;21.67;57.05;101301.94;4959471;28;45665;-84
2021/09/17 09:36:13;;;;;;;;;10.00;8.67;;;;;22.16;57.37;101292.91;4958673;28;45492;-84
2021/09/17 09:38:51;;;;;;;;;6.67;6.67;;;;;22.69;56.38;101299.75;4959584;28;45409;-84
2021/09/17 09:41:20;;;;;;;;;10.33;10.33;;;;;23.14;55.49;101306.66;4959461;28;45414;-84
2021/09/17 09:43:53;;;;;;;;;13.33;13.33;;;;;23.57;52.93;101302.88;4957791;28;45797;-83
2021/09/17 09:46:20;;;;;;;;;17.33;15.33;;;;;23.91;53.20;101293.84;4941382;28;45426;-83
2021/09/17 09:49:07;;;;;;;;;12.33;9.00;;;;;24.34;52.46;101300.66;4959235;28;45239;-85
2021/09/17 09:51:51;;;;;;;;;14.00;12.00;;;;;24.72;51.13;101303.03;4959752;28;45497;-87
2021/09/17 09:54:17;;;;;;;;;10.67;10.67;;;;;25.13;50.65;101304.38;4959480;28;45525;-84
2021/09/17 09:56:43;;;;;;;;;12.33;10.00;;;;;25.44;50.00;101296.09;4959113;28;45253;-84
2021/09/17 09:59:08;;;;;;;;;10.00;9.00;;;;;25.86;49.37;101298.19;4959403;28;45326;-87
2021/09/17 10:01:36;;;;;;;;;8.67;8.00;;;;;26.21;49.54;101300.41;4959393;28;45552;-85
2021/09/17 10:04:03;;;;;;;;;8.67;6.00;;;;;26.55;47.42;101287.41;4941843;28;47627;-85
2021/09/17 10:06:31;;;;;;;;;11.00;8.67;;;;;26.94;46.93;101299.28;4959144;28;45366;-86
2021/09/17 10:08:57;;;;;;;;;7.00;7.00;;;;;27.28;46.74;101289.75;4959161;28;45347;-86
2021/09/17 10:11:24;;;;;;;;;6.67;6.67;;;;;27.60;47.06;101291.06;4959304;28;45481;-86
2021/09/17 10:13:53;;;;;;;;;8.00;7.00;;;;;27.94;45.93;101297.59;4959025;28;45303;-86
2021/09/17 10:16:21;;;;;;;;;9.33;9.00;;;;;27.96;44.41;101290.28;4959013;28;45346;-87
2021/09/17 10:18:48;;;;;;;;;10.33;8.00;;;;;28.07;44.34;101292.47;4957155;28;45266;-86
2021/09/17 10:21:13;;;;;;;;;9.00;9.00;;;;;28.56;44.70;101292.88;4959756;28;45355;-86
2021/09/17 10:23:44;;;;;;;;;11.00;9.33;;;;;29.47;42.65;101294.56;4959517;28;45444;-86
2021/09/17 10:26:13;;;;;;;;;6.33;6.00;;;;;30.51;41.45;101284.34;4959280;28;45235;-85
2021/09/17 10:29:06;;;;;;;;;8.67;7.00;;;;;31.58;39.94;101285.28;4959081;28;45417;-85
2021/09/17 10:31:46;;;;;;;;;7.00;7.00;;;;;32.51;39.16;101285.66;4958433;28;45302;-86
2021/09/17 10:34:40;;;;;;;;;5.00;5.00;;;;;33.42;36.89;101285.81;4957119;28;45368;-86
2021/09/17 10:37:07;;;;;;;;;6.00;6.00;;;;;34.18;35.63;101292.22;4956916;28;45467;-86
2021/09/17 10:39:33;;;;;;;;;8.00;8.00;;;;;34.74;35.22;101293.47;4957103;28;45271;-85
2021/09/17 10:42:05;;;;;;;;;6.33;6.33;;;;;35.19;34.90;101293.72;4957264;28;45322;-85
2021/09/17 10:44:31;;;;;;;;;6.33;6.33;;;;;35.61;33.49;101287.69;4956772;28;45453;-86
2021/09/17 10:46:56;;;;;;;;;7.33;6.33;;;;;36.06;32.73;101295.97;4956748;28;45452;-86
2021/09/17 10:49:21;;;;;;;;;6.00;6.00;;;;;36.52;32.67;101295.84;4957061;28;45289;-85
2021/09/17 10:51:47;;;;;;;;;6.00;6.00;;;;;37.04;30.53;101303.34;4939973;28;45351;-84
2021/09/17 10:54:19;;;;;;;;;6.00;4.33;;;;;37.48;30.23;101294.94;4956985;28;45406;-84
2021/09/17 10:56:47;;;;;;;;;8.00;6.67;;;;;37.85;29.34;101292.59;4956393;28;45318;-86
2021/09/17 10:59:29;;;;;;;;;5.33;5.00;;;;;38.21;28.60;101289.34;4956359;28;45338;-84
2021/09/17 11:02:06;;;;;;;;;5.33;4.00;;;;;38.61;28.13;101290.25;4956878;28;45311;-86
2021/09/17 11:04:38;;;;;;;;;6.00;4.00;;;;;38.94;26.92;101289.94;4956412;28;46795;-86
2021/09/17 11:07:22;;;;;;;;;5.00;5.00;;;;;39.32;27.06;101281.75;4956448;28;45411;-85
2021/09/17 11:09:55;;;;;;;;;5.67;5.67;;;;;39.58;26.40;101275.53;4956764;28;45446;-85
2021/09/17 11:12:23;;;;;;;;;4.00;4.00;;;;;39.91;25.75;101277.84;4956707;28;45390;-85
2021/09/17 11:15:03;;;;;;;;;6.33;5.00;;;;;40.24;25.74;101282.84;4938755;28;47363;-84
2021/09/17 11:17:38;;;;;;;;;10.67;8.33;;;;;40.38;24.89;101275.06;4956480;28;45868;-85